createdAt,value
2023-01-20T00:01:43.615Z,1.20
2023-01-20T00:04:12.268Z,1.30
2023-01-20T00:06:40.569Z,1.20
2023-01-20T00:09:14.624Z,1.30
2023-01-20T00:11:42.909Z,1.30
2023-01-20T00:14:11.535Z,1.30
2023-01-20T00:16:39.848Z,1.40
2023-01-20T00:19:08.089Z,1.50
2023-01-20T00:21:36.295Z,1.50
2023-01-20T00:24:04.727Z,1.50
2023-01-20T00:26:34.361Z,1.60
2023-01-20T00:29:02.606Z,1.60
2023-01-20T00:31:32.722Z,1.60
2023-01-20T00:34:02.173Z,1.70
2023-01-20T00:36:32.675Z,1.70
2023-01-20T00:39:02.410Z,1.70
2023-01-20T00:41:30.960Z,1.70
2023-01-20T00:44:00.656Z,1.80
2023-01-20T00:46:29.329Z,1.70
2023-01-20T00:48:57.795Z,1.70
2023-01-20T00:51:26.060Z,1.70
2023-01-20T00:53:54.329Z,1.70
2023-01-20T00:56:22.592Z,1.80
2023-01-20T00:58:50.873Z,1.70
2023-01-20T01:01:20.611Z,1.70
2023-01-20T01:03:49.280Z,1.60
2023-01-20T01:06:18.725Z,1.60
2023-01-20T01:08:47.372Z,1.50
2023-01-20T01:11:15.706Z,1.40
2023-01-20T01:13:44.369Z,1.60
2023-01-20T01:16:14.069Z,1.40
2023-01-20T01:18:44.268Z,1.50
2023-01-20T01:21:15.042Z,1.50
2023-01-20T01:23:43.775Z,1.60
2023-01-20T01:26:12.169Z,1.60
2023-01-20T01:28:40.832Z,1.60
2023-01-20T01:31:09.942Z,1.60
2023-01-20T01:33:38.233Z,1.50
2023-01-20T01:36:12.057Z,1.40
2023-01-20T01:38:40.610Z,1.40
2023-01-20T01:41:08.890Z,1.30
2023-01-20T01:43:38.721Z,1.20
2023-01-20T01:46:08.402Z,1.10
2023-01-20T01:48:40.386Z,1.10
2023-01-20T01:51:15.398Z,1.10
2023-01-20T01:53:47.892Z,1.10
2023-01-20T01:56:17.840Z,1.10
2023-01-20T01:58:49.746Z,1.20
2023-01-20T02:01:18.451Z,1.30
2023-01-20T02:03:52.890Z,1.30
2023-01-20T02:06:25.404Z,1.40
2023-01-20T02:08:54.562Z,1.50
2023-01-20T02:11:23.033Z,1.50
2023-01-20T02:13:51.436Z,1.50
2023-01-20T02:16:29.683Z,1.40
2023-01-20T02:19:12.748Z,1.60
2023-01-20T02:21:59.971Z,1.40
2023-01-20T02:24:55.123Z,1.50
2023-01-20T02:27:41.033Z,1.40
2023-01-20T02:30:33.022Z,1.40
2023-01-20T02:33:07.165Z,1.50
2023-01-20T02:35:41.566Z,1.50
2023-01-20T02:38:17.990Z,1.50
2023-01-20T02:40:54.580Z,1.50
2023-01-20T02:43:36.459Z,1.60
2023-01-20T02:46:10.965Z,1.50
2023-01-20T02:48:45.535Z,1.40
2023-01-20T02:51:18.961Z,1.50
2023-01-20T02:53:51.293Z,1.40
2023-01-20T02:56:22.548Z,1.50
2023-01-20T02:58:53.686Z,1.50
2023-01-20T03:01:26.016Z,1.60
2023-01-20T03:03:58.222Z,1.70
2023-01-20T03:06:29.960Z,1.70
2023-01-20T03:09:01.236Z,1.80
2023-01-20T03:11:32.413Z,1.80
2023-01-20T03:14:05.533Z,1.80
2023-01-20T03:16:34.056Z,1.60
2023-01-20T03:19:04.376Z,1.60
2023-01-20T03:21:33.583Z,1.60
2023-01-20T03:24:04.599Z,1.60
2023-01-20T03:26:32.965Z,1.60
2023-01-20T03:29:05.642Z,1.60
2023-01-20T03:31:38.169Z,1.50
2023-01-20T03:34:12.693Z,1.50
2023-01-20T03:36:42.178Z,1.40
2023-01-20T03:39:10.592Z,1.40
2023-01-20T03:41:52.054Z,1.30
2023-01-20T03:44:25.150Z,1.30
2023-01-20T03:46:58.138Z,1.30
2023-01-20T03:49:34.863Z,1.40
2023-01-20T03:52:07.037Z,1.20
2023-01-20T03:54:39.271Z,1.20
2023-01-20T03:57:12.169Z,1.20
2023-01-20T03:59:43.109Z,1.00
2023-01-20T04:02:12.653Z,1.10
2023-01-20T04:04:45.041Z,1.00
2023-01-20T04:07:18.070Z,1.10
2023-01-20T04:09:49.901Z,1.00
2023-01-20T04:12:18.324Z,1.00
2023-01-20T04:14:46.725Z,1.00
2023-01-20T04:17:15.205Z,1.10
2023-01-20T04:19:44.832Z,1.10
2023-01-20T04:22:17.981Z,1.10
2023-01-20T04:24:52.070Z,1.10
2023-01-20T04:27:20.360Z,1.10
2023-01-20T04:29:48.645Z,1.20
2023-01-20T04:32:16.968Z,1.00
2023-01-20T04:34:46.594Z,0.90
2023-01-20T04:37:14.893Z,0.90
2023-01-20T04:39:43.114Z,1.00
2023-01-20T04:42:11.396Z,0.90
2023-01-20T04:44:39.655Z,0.80
2023-01-20T04:47:08.129Z,0.80
2023-01-20T04:49:36.524Z,0.80
2023-01-20T04:52:06.254Z,0.90
2023-01-20T04:54:34.698Z,1.00
2023-01-20T04:57:02.950Z,1.00
2023-01-20T04:59:31.211Z,1.00
2023-01-20T05:01:59.561Z,1.00
2023-01-20T05:04:28.120Z,1.10
2023-01-20T05:06:56.378Z,1.00
2023-01-20T05:09:26.019Z,1.00
2023-01-20T05:11:54.247Z,1.00
2023-01-20T05:14:22.543Z,1.00
2023-01-20T05:16:50.852Z,0.80
2023-01-20T05:19:19.282Z,1.00
2023-01-20T05:21:47.469Z,0.90
2023-01-20T05:24:15.843Z,0.90
2023-01-20T05:26:45.498Z,0.90
2023-01-20T05:29:13.735Z,0.90
2023-01-20T05:31:43.490Z,1.10
2023-01-20T05:34:12.488Z,1.10
2023-01-20T05:36:40.733Z,1.10
2023-01-20T05:39:09.012Z,1.30
2023-01-20T05:41:37.306Z,1.30
2023-01-20T05:44:07.571Z,1.30
2023-01-20T05:46:35.918Z,1.30
2023-01-20T05:49:04.164Z,1.30
2023-01-20T05:51:32.442Z,1.40
2023-01-20T05:54:00.729Z,1.40
2023-01-20T05:56:28.974Z,1.30
2023-01-20T05:58:57.546Z,1.40
2023-01-20T06:01:27.354Z,1.40
2023-01-20T06:03:55.691Z,1.30
2023-01-20T06:06:23.950Z,1.30
2023-01-20T06:08:53.733Z,1.30
2023-01-20T06:11:22.158Z,1.30
2023-01-20T06:13:50.872Z,1.30
2023-01-20T06:16:19.969Z,1.40
2023-01-20T06:18:49.612Z,1.30
2023-01-20T06:21:17.874Z,1.40
2023-01-20T06:23:46.218Z,1.40
2023-01-20T06:26:15.164Z,1.30
2023-01-20T06:28:43.949Z,1.30
2023-01-20T06:31:14.293Z,1.20
2023-01-20T06:33:43.165Z,1.20
2023-01-20T06:36:16.963Z,1.20
2023-01-20T06:38:48.437Z,1.20
2023-01-20T06:41:16.993Z,1.20
2023-01-20T06:43:45.625Z,1.30
2023-01-20T06:46:15.778Z,1.40
2023-01-20T06:48:45.280Z,1.30
2023-01-20T06:51:16.855Z,1.30
2023-01-20T06:53:45.842Z,1.30
2023-01-20T06:56:15.573Z,1.50
2023-01-20T06:58:44.762Z,1.40
2023-01-20T07:01:14.929Z,1.60
2023-01-20T07:03:44.414Z,1.50
2023-01-20T07:06:28.559Z,1.60
2023-01-20T07:08:58.882Z,1.70
2023-01-20T07:11:27.567Z,1.70
2023-01-20T07:13:55.917Z,1.70
2023-01-20T07:16:24.217Z,1.80
2023-01-20T07:18:53.595Z,1.80
2023-01-20T07:21:26.256Z,1.80
2023-01-20T07:23:54.883Z,1.80
2023-01-20T07:26:26.466Z,1.80
2023-01-20T07:28:54.950Z,1.90
2023-01-20T07:31:25.244Z,1.90
2023-01-20T07:33:55.185Z,1.80
2023-01-20T07:36:25.546Z,1.80
2023-01-20T07:38:54.305Z,1.70
2023-01-20T07:41:23.255Z,1.80
2023-01-20T07:43:53.437Z,1.80
2023-01-20T07:46:23.207Z,1.70
2023-01-20T07:48:51.535Z,1.70
2023-01-20T07:51:20.146Z,1.70
2023-01-20T07:53:52.057Z,1.70
2023-01-20T07:56:23.657Z,1.80
2023-01-20T07:58:52.319Z,1.70
2023-01-20T08:01:22.891Z,1.80
2023-01-20T08:03:51.504Z,1.80
2023-01-20T08:06:22.642Z,1.80
2023-01-20T08:08:52.262Z,1.90
2023-01-20T08:11:22.208Z,1.90
2023-01-20T08:13:50.617Z,1.90
2023-01-20T08:16:19.975Z,1.90
2023-01-20T08:18:49.127Z,1.90
2023-01-20T08:21:23.111Z,1.90
2023-01-20T08:23:53.211Z,1.80
2023-01-20T08:26:21.474Z,1.80
2023-01-20T08:28:49.688Z,1.80
2023-01-20T08:31:20.811Z,1.80
2023-01-20T08:33:49.803Z,1.80
2023-01-20T08:36:20.963Z,1.90
2023-01-20T08:38:49.817Z,1.90
2023-01-20T08:41:22.058Z,1.80
2023-01-20T08:43:50.434Z,1.90
2023-01-20T08:46:20.612Z,2.00
2023-01-20T08:48:50.477Z,1.90
2023-01-20T08:51:21.638Z,2.00
2023-01-20T08:53:50.681Z,2.10
2023-01-20T08:56:21.000Z,2.00
2023-01-20T08:58:49.712Z,2.00
2023-01-20T09:01:20.737Z,2.00
2023-01-20T09:04:04.262Z,2.20
2023-01-20T09:06:38.735Z,2.00
2023-01-20T09:09:06.958Z,2.10
2023-01-20T09:11:36.687Z,2.40
2023-01-20T09:14:05.645Z,2.30
2023-01-20T09:16:33.832Z,2.20
2023-01-20T09:19:03.169Z,2.10
2023-01-20T09:21:31.450Z,2.10
2023-01-20T09:23:59.712Z,2.00
2023-01-20T09:26:35.795Z,1.90
2023-01-20T09:29:10.250Z,1.90
2023-01-20T09:31:39.924Z,1.90
2023-01-20T09:34:08.435Z,2.00
2023-01-20T09:36:36.743Z,2.00
2023-01-20T09:39:23.066Z,2.10
2023-01-20T09:42:14.396Z,2.10
2023-01-20T09:44:50.052Z,2.20
2023-01-20T09:47:28.146Z,2.30
2023-01-20T09:50:40.187Z,2.20
2023-01-20T09:53:16.253Z,2.10
2023-01-20T09:55:50.010Z,2.00
2023-01-20T09:58:25.958Z,2.10
2023-01-20T10:01:06.994Z,2.10
2023-01-20T10:03:41.734Z,2.20
2023-01-20T10:06:13.986Z,2.30
2023-01-20T10:09:04.237Z,2.30
2023-01-20T10:11:39.025Z,2.40
2023-01-20T10:14:13.267Z,2.50
2023-01-20T10:16:51.481Z,2.50
2023-01-20T10:19:28.030Z,2.70
2023-01-20T10:22:06.252Z,3.00
2023-01-20T10:24:39.368Z,3.20
2023-01-20T10:27:07.620Z,3.40
2023-01-20T10:29:37.847Z,3.40
2023-01-20T10:32:20.898Z,3.70
2023-01-20T10:34:51.873Z,3.70
2023-01-20T10:37:20.417Z,3.80
2023-01-20T10:39:54.406Z,3.80
2023-01-20T10:42:24.211Z,3.90
2023-01-20T10:44:54.132Z,3.70
2023-01-20T10:47:35.742Z,3.50
2023-01-20T10:50:43.647Z,3.40
2023-01-20T10:53:34.074Z,3.40
2023-01-20T10:56:33.033Z,3.40
2023-01-20T10:59:08.359Z,3.50
2023-01-20T11:01:37.688Z,3.40
2023-01-20T11:04:07.375Z,3.30
2023-01-20T11:06:35.653Z,3.30
2023-01-20T11:09:21.872Z,3.20
2023-01-20T11:11:50.217Z,3.30
2023-01-20T11:14:18.677Z,3.40
2023-01-20T11:16:50.820Z,3.50
2023-01-20T11:19:20.398Z,3.70
2023-01-20T11:21:49.824Z,3.70
2023-01-20T11:24:41.739Z,3.60
2023-01-20T11:27:15.351Z,3.80
2023-01-20T11:29:46.231Z,3.70
2023-01-20T11:32:32.941Z,3.80
2023-01-20T11:35:04.396Z,3.90
2023-01-20T11:37:40.249Z,4.00
2023-01-20T11:40:21.342Z,4.20
2023-01-20T11:42:51.629Z,4.30
2023-01-20T11:45:30.338Z,4.40
2023-01-20T11:48:07.289Z,4.60
2023-01-20T11:50:40.525Z,4.60
2023-01-20T11:53:20.544Z,4.80
2023-01-20T11:55:52.242Z,4.80
2023-01-20T11:58:22.941Z,4.80
2023-01-20T12:00:53.509Z,4.60
2023-01-20T12:04:12.975Z,4.30
2023-01-20T12:06:52.645Z,4.10
2023-01-20T12:09:26.761Z,4.00
2023-01-20T12:11:59.001Z,4.10
2023-01-20T12:14:33.282Z,4.00
2023-01-20T12:17:14.340Z,3.90
2023-01-20T12:20:00.287Z,3.80
2023-01-20T12:22:39.671Z,3.80
2023-01-20T12:25:17.385Z,3.70
2023-01-20T12:27:49.701Z,3.70
2023-01-20T12:30:41.128Z,3.70
2023-01-20T12:33:20.601Z,3.60
2023-01-20T12:36:06.834Z,3.60
2023-01-20T12:38:43.576Z,3.80
2023-01-20T12:41:23.174Z,3.60
2023-01-20T12:44:02.114Z,3.50
2023-01-20T12:46:42.415Z,3.50
2023-01-20T12:49:34.172Z,3.50
2023-01-20T12:52:19.014Z,3.40
2023-01-20T12:55:14.364Z,3.60
2023-01-20T12:58:08.441Z,3.70
2023-01-20T13:00:51.492Z,3.70
2023-01-20T13:03:52.851Z,3.60
2023-01-20T13:07:04.268Z,3.60
2023-01-20T13:09:42.041Z,3.50
2023-01-20T13:12:31.934Z,3.40
2023-01-20T13:15:04.043Z,3.40
2023-01-20T13:17:39.298Z,3.30
2023-01-20T13:20:24.701Z,3.40
2023-01-20T13:22:54.697Z,3.40
2023-01-20T13:25:25.517Z,3.50
2023-01-20T13:27:57.857Z,3.50
2023-01-20T13:30:44.069Z,3.70
2023-01-20T13:33:29.998Z,3.90
2023-01-20T13:35:59.951Z,4.00
2023-01-20T13:38:30.944Z,4.00
2023-01-20T13:41:03.150Z,4.10
2023-01-20T13:43:58.370Z,4.20
2023-01-20T13:46:47.269Z,4.20
2023-01-20T13:49:24.229Z,4.20
2023-01-20T13:51:52.785Z,4.20
2023-01-20T13:54:42.697Z,4.30
2023-01-20T13:57:38.378Z,4.40
2023-01-20T14:00:17.258Z,4.40
2023-01-20T14:02:52.917Z,4.50
2023-01-20T14:05:32.940Z,4.40
2023-01-20T14:08:01.520Z,4.50
2023-01-20T14:10:29.821Z,4.50
2023-01-20T14:12:58.043Z,4.50
2023-01-20T14:15:33.080Z,4.50
2023-01-20T14:18:03.282Z,4.60
2023-01-20T14:20:32.248Z,4.50
2023-01-20T14:23:26.835Z,4.60
2023-01-20T14:25:59.143Z,4.80
2023-01-20T14:28:27.650Z,5.00
2023-01-20T14:31:18.600Z,5.10
2023-01-20T14:33:49.465Z,5.30
2023-01-20T14:36:19.991Z,5.50
2023-01-20T14:38:57.783Z,5.70
2023-01-20T14:41:29.637Z,5.60
2023-01-20T14:43:58.325Z,5.60
2023-01-20T14:46:29.127Z,5.60
2023-01-20T14:48:58.052Z,5.60
2023-01-20T14:51:26.585Z,5.60
2023-01-20T14:54:28.167Z,5.60
2023-01-20T14:56:56.615Z,5.80
2023-01-20T14:59:25.222Z,5.80
2023-01-20T15:02:02.723Z,5.70
2023-01-20T15:04:38.243Z,5.60
2023-01-20T15:07:07.374Z,5.60
2023-01-20T15:09:38.783Z,5.50
2023-01-20T15:12:43.231Z,5.20
2023-01-20T15:15:27.478Z,5.10
2023-01-20T15:18:17.697Z,5.00
2023-01-20T15:20:48.595Z,4.90
2023-01-20T15:23:35.489Z,4.80
2023-01-20T15:26:09.799Z,4.80
2023-01-20T15:28:43.440Z,4.80
2023-01-20T15:31:15.003Z,4.70
2023-01-20T15:33:45.366Z,4.60
2023-01-20T15:36:22.716Z,4.60
2023-01-20T15:38:52.847Z,4.70
2023-01-20T15:41:21.247Z,4.70
2023-01-20T15:43:52.534Z,4.70
2023-01-20T15:46:23.436Z,4.70
2023-01-20T15:48:53.993Z,4.70
2023-01-20T15:51:22.228Z,4.70
2023-01-20T15:53:50.488Z,4.70
2023-01-20T15:56:21.952Z,4.70
2023-01-20T15:58:50.723Z,4.60
2023-01-20T16:01:23.797Z,4.60
2023-01-20T16:03:54.978Z,4.70
2023-01-20T16:06:28.139Z,4.50
2023-01-20T16:08:57.935Z,4.60
2023-01-20T16:11:26.242Z,4.60
2023-01-20T16:14:03.591Z,4.50
2023-01-20T16:16:34.254Z,4.40
2023-01-20T16:19:06.691Z,4.40
2023-01-20T16:21:34.930Z,4.30
2023-01-20T16:24:03.175Z,4.30
2023-01-20T16:26:35.141Z,4.30
2023-01-20T16:29:04.690Z,4.30
2023-01-20T16:31:33.548Z,4.30
2023-01-20T16:34:06.133Z,4.30
2023-01-20T16:36:34.467Z,4.30
2023-01-20T16:39:02.693Z,4.20
2023-01-20T16:41:33.239Z,4.20
2023-01-20T16:44:01.568Z,4.20
2023-01-20T16:46:31.576Z,4.20
2023-01-20T16:49:02.100Z,4.20
2023-01-20T16:51:32.684Z,4.20
2023-01-20T16:54:01.263Z,4.20
2023-01-20T16:56:34.212Z,4.20
2023-01-20T16:59:05.687Z,4.30
2023-01-20T17:01:33.968Z,4.20
2023-01-20T17:04:06.478Z,4.10
2023-01-20T17:06:36.312Z,4.00
2023-01-20T17:09:06.248Z,3.90
2023-01-20T17:11:36.959Z,3.60
2023-01-20T17:14:07.539Z,3.10
2023-01-20T17:16:37.024Z,2.90
2023-01-20T17:19:06.180Z,2.60
2023-01-20T17:21:39.407Z,2.20
2023-01-20T17:24:08.563Z,1.80
2023-01-20T17:26:37.878Z,1.70
2023-01-20T17:29:07.101Z,1.60
2023-01-20T17:31:40.431Z,1.50
2023-01-20T17:34:08.784Z,1.30
2023-01-20T17:36:40.609Z,1.30
2023-01-20T17:39:09.233Z,1.30
2023-01-20T17:41:38.993Z,1.30
2023-01-20T17:44:09.491Z,1.50
2023-01-20T17:46:38.555Z,1.50
2023-01-20T17:49:07.746Z,1.60
2023-01-20T17:51:36.091Z,1.60
2023-01-20T17:54:05.612Z,1.70
2023-01-20T17:56:35.104Z,1.70
2023-01-20T17:59:05.931Z,1.80
2023-01-20T18:01:34.636Z,1.80
2023-01-20T18:04:06.306Z,1.70
2023-01-20T18:06:37.524Z,1.70
2023-01-20T18:09:08.616Z,1.70
2023-01-20T18:11:37.967Z,1.70
2023-01-20T18:14:07.300Z,1.90
2023-01-20T18:16:37.787Z,1.80
2023-01-20T18:19:07.081Z,1.80
2023-01-20T18:21:36.775Z,1.80
2023-01-20T18:24:08.472Z,1.70
2023-01-20T18:26:38.772Z,1.50
2023-01-20T18:29:13.603Z,1.50
2023-01-20T18:31:42.198Z,1.50
2023-01-20T18:34:16.413Z,1.50
2023-01-20T18:36:49.150Z,1.50
2023-01-20T18:39:20.626Z,1.40
2023-01-20T18:41:49.325Z,1.40
2023-01-20T18:44:17.784Z,1.50
2023-01-20T18:46:46.072Z,1.50
2023-01-20T18:49:15.323Z,1.50
2023-01-20T18:51:43.967Z,1.40
2023-01-20T18:54:17.474Z,1.40
2023-01-20T18:56:47.176Z,1.40
2023-01-20T18:59:15.725Z,1.40
2023-01-20T19:01:44.135Z,1.40
2023-01-20T19:04:15.878Z,1.50
2023-01-20T19:06:45.976Z,1.60
2023-01-20T19:09:17.383Z,1.60
2023-01-20T19:11:47.152Z,1.50
2023-01-20T19:14:16.212Z,1.60
2023-01-20T19:16:49.189Z,1.60
2023-01-20T19:19:19.161Z,1.50
2023-01-20T19:21:50.587Z,1.40
2023-01-20T19:24:20.773Z,1.30
2023-01-20T19:26:58.033Z,1.40
2023-01-20T19:29:29.078Z,1.50
2023-01-20T19:31:57.755Z,1.30
2023-01-20T19:34:27.115Z,1.30
2023-01-20T19:36:57.463Z,1.20
2023-01-20T19:39:25.724Z,1.30
2023-01-20T19:41:55.383Z,1.30
2023-01-20T19:44:24.583Z,1.30
2023-01-20T19:46:52.775Z,1.20
2023-01-20T19:49:22.054Z,1.20
2023-01-20T19:51:50.280Z,1.30
2023-01-20T19:54:21.378Z,1.30
2023-01-20T19:56:49.852Z,1.30
2023-01-20T19:59:22.246Z,1.30
2023-01-20T20:01:51.665Z,1.30
2023-01-20T20:04:20.651Z,1.30
2023-01-20T20:06:49.049Z,1.30
2023-01-20T20:09:23.355Z,1.40
2023-01-20T20:11:51.782Z,1.40
2023-01-20T20:14:23.638Z,1.40
2023-01-20T20:16:52.014Z,1.50
2023-01-20T20:19:20.873Z,1.30
2023-01-20T20:21:49.447Z,1.30
2023-01-20T20:24:19.296Z,1.30
2023-01-20T20:26:48.768Z,1.30
2023-01-20T20:29:18.564Z,1.30
2023-01-20T20:31:48.377Z,1.30
2023-01-20T20:34:18.583Z,1.20
2023-01-20T20:36:47.580Z,1.00
2023-01-20T20:39:17.342Z,1.20
2023-01-20T20:41:46.371Z,1.10
2023-01-20T20:44:14.654Z,1.00
2023-01-20T20:46:43.448Z,1.00
2023-01-20T20:49:15.928Z,1.10
2023-01-20T20:51:44.564Z,1.10
2023-01-20T20:54:15.279Z,1.00
2023-01-20T20:56:43.698Z,1.00
2023-01-20T20:59:12.009Z,1.00
2023-01-20T21:01:40.469Z,1.00
2023-01-20T21:04:08.893Z,1.00
2023-01-20T21:06:38.523Z,0.90
2023-01-20T21:09:06.789Z,0.90
2023-01-20T21:11:38.381Z,1.00
2023-01-20T21:14:07.266Z,1.00
2023-01-20T21:16:35.748Z,1.00
2023-01-20T21:19:05.096Z,1.10
2023-01-20T21:21:33.376Z,1.20
2023-01-20T21:24:03.081Z,1.30
2023-01-20T21:26:31.446Z,1.20
2023-01-20T21:29:01.947Z,1.00
2023-01-20T21:31:32.070Z,0.90
2023-01-20T21:34:01.317Z,0.90
2023-01-20T21:36:31.170Z,1.00
2023-01-20T21:38:59.905Z,0.90
2023-01-20T21:41:29.482Z,0.90
2023-01-20T21:44:15.303Z,0.90
2023-01-20T21:46:43.609Z,0.80
2023-01-20T21:49:29.370Z,1.00
2023-01-20T21:52:15.441Z,1.00
2023-01-20T21:54:45.260Z,1.00
2023-01-20T21:57:15.617Z,1.00
2023-01-20T21:59:45.617Z,0.90
2023-01-20T22:02:15.126Z,0.90
2023-01-20T22:04:43.497Z,0.80
2023-01-20T22:07:11.759Z,0.80
2023-01-20T22:09:40.339Z,0.80
2023-01-20T22:12:09.020Z,0.90
2023-01-20T22:14:39.114Z,0.90
2023-01-20T22:17:08.354Z,1.00
2023-01-20T22:19:37.238Z,1.00
2023-01-20T22:22:06.062Z,0.90
2023-01-20T22:24:34.342Z,0.80
2023-01-20T22:27:02.720Z,0.80
2023-01-20T22:29:31.343Z,0.90
2023-01-20T22:32:03.215Z,0.90
2023-01-20T22:34:33.335Z,0.80
2023-01-20T22:37:01.774Z,0.80
2023-01-20T22:39:41.550Z,0.80
2023-01-20T22:42:10.021Z,0.80
2023-01-20T22:44:38.272Z,0.90
2023-01-20T22:47:10.125Z,0.80
2023-01-20T22:49:38.738Z,0.80
2023-01-20T22:52:07.136Z,1.00
2023-01-20T22:54:35.496Z,1.10
2023-01-20T22:57:03.650Z,1.30
2023-01-20T22:59:31.934Z,1.20
2023-01-20T23:02:00.241Z,1.10
2023-01-20T23:04:29.862Z,1.20
2023-01-20T23:06:58.060Z,1.10
2023-01-20T23:09:26.298Z,1.10
2023-01-20T23:11:54.545Z,1.00
2023-01-20T23:14:42.837Z,0.90
2023-01-20T23:17:11.051Z,1.00
2023-01-20T23:19:40.594Z,1.00
2023-01-20T23:22:09.256Z,0.90
2023-01-20T23:24:37.437Z,0.80
2023-01-20T23:27:05.704Z,0.80
2023-01-20T23:29:33.927Z,0.70
2023-01-20T23:32:02.267Z,0.70
2023-01-20T23:34:30.743Z,0.60
2023-01-20T23:37:00.482Z,0.70
2023-01-20T23:39:28.755Z,0.80
2023-01-20T23:41:57.845Z,0.80
2023-01-20T23:44:26.150Z,0.70
2023-01-20T23:46:54.396Z,0.60
2023-01-20T23:49:22.953Z,0.50
2023-01-20T23:51:51.168Z,0.40
2023-01-20T23:54:20.972Z,0.30
2023-01-20T23:56:49.250Z,0.10
2023-01-20T23:59:17.542Z,0.20
